<?xml version="1.0" encoding="UTF-8" standalone="no" ?>
<gpx xmlns="http://www.topografix.com/GPX/1/1" xmlns:xsi="http://www.w3.org/2001/XMLSchema-instance" xsi:schemaLocation="http://www.topografix.com/GPX/1/1 http://www.topografix.com/GPX/1/1/gpx.xsd" version="1.1" creator="VisuGPX - https://www.visugpx.com">
  <metadata>
    <name>Tracé Equipe A du départ au Point 2-16183205</name>
  </metadata>
  <trk>
    <name><![CDATA[Tracé Equipe A du départ au Point 2-16183205]]></name>
    <trkseg>
      <trkpt lat="48.40371" lon="2.68252">
        <ele>80</ele>
        <time>2023-02-27T12:43:11Z</time>
      </trkpt>
      <trkpt lat="48.4054" lon="2.67682">
        <ele>85</ele>
        <time>2023-02-27T12:44:48Z</time>
      </trkpt>
      <trkpt lat="48.3962" lon="2.67355">
        <ele>98</ele>
        <time>2023-02-27T12:48:29Z</time>
      </trkpt>
      <trkpt lat="48.3953" lon="2.67148">
        <ele>92</ele>
        <time>2023-02-27T12:49:07Z</time>
      </trkpt>
      <trkpt lat="48.39576" lon="2.66727">
        <ele>98</ele>
        <time>2023-02-27T12:50:13Z</time>
      </trkpt>
      <trkpt lat="48.39591" lon="2.66431">
        <ele>98</ele>
        <time>2023-02-27T12:50:59Z</time>
      </trkpt>
      <trkpt lat="48.39604" lon="2.66384">
        <ele>99</ele>
        <time>2023-02-27T12:51:07Z</time>
      </trkpt>
      <trkpt lat="48.39612" lon="2.66328">
        <ele>100</ele>
        <time>2023-02-27T12:51:16Z</time>
      </trkpt>
      <trkpt lat="48.39592" lon="2.66275">
        <ele>97</ele>
        <time>2023-02-27T12:51:25Z</time>
      </trkpt>
      <trkpt lat="48.39583" lon="2.6618">
        <ele>94</ele>
        <time>2023-02-27T12:51:40Z</time>
      </trkpt>
      <trkpt lat="48.396" lon="2.66084">
        <ele>94</ele>
        <time>2023-02-27T12:51:56Z</time>
      </trkpt>
      <trkpt lat="48.39634" lon="2.6592">
        <ele>93</ele>
        <time>2023-02-27T12:52:22Z</time>
      </trkpt>
      <trkpt lat="48.39714" lon="2.655">
        <ele>91</ele>
        <time>2023-02-27T12:53:30Z</time>
      </trkpt>
      <trkpt lat="48.39737" lon="2.65323">
        <ele>94</ele>
        <time>2023-02-27T12:53:58Z</time>
      </trkpt>
      <trkpt lat="48.39794" lon="2.64756">
        <ele>101</ele>
        <time>2023-02-27T12:55:27Z</time>
      </trkpt>
      <trkpt lat="48.39789" lon="2.64684">
        <ele>100</ele>
        <time>2023-02-27T12:55:38Z</time>
      </trkpt>
      <trkpt lat="48.39775" lon="2.64641">
        <ele>100</ele>
        <time>2023-02-27T12:55:46Z</time>
      </trkpt>
      <trkpt lat="48.39773" lon="2.64294">
        <ele>99</ele>
        <time>2023-02-27T12:56:39Z</time>
      </trkpt>
      <trkpt lat="48.39812" lon="2.63955">
        <ele>104</ele>
        <time>2023-02-27T12:57:33Z</time>
      </trkpt>
      <trkpt lat="48.39831" lon="2.63754">
        <ele>111</ele>
        <time>2023-02-27T12:58:04Z</time>
      </trkpt>
      <trkpt lat="48.39871" lon="2.63699">
        <ele>119</ele>
        <time>2023-02-27T12:58:17Z</time>
      </trkpt>
      <trkpt lat="48.39935" lon="2.63684">
        <ele>126</ele>
        <time>2023-02-27T12:58:32Z</time>
      </trkpt>
      <trkpt lat="48.39961" lon="2.63631">
        <ele>129</ele>
        <time>2023-02-27T12:58:42Z</time>
      </trkpt>
      <trkpt lat="48.40064" lon="2.63575">
        <ele>135</ele>
        <time>2023-02-27T12:59:08Z</time>
      </trkpt>
      <trkpt lat="48.4011" lon="2.63616">
        <ele>136</ele>
        <time>2023-02-27T12:59:20Z</time>
      </trkpt>
      <trkpt lat="48.40163" lon="2.63705">
        <ele>138</ele>
        <time>2023-02-27T12:59:39Z</time>
      </trkpt>
      <trkpt lat="48.40267" lon="2.63879">
        <ele>137</ele>
        <time>2023-02-27T13:00:15Z</time>
      </trkpt>
      <trkpt lat="48.40362" lon="2.63848">
        <ele>139</ele>
        <time>2023-02-27T13:00:38Z</time>
      </trkpt>
      <trkpt lat="48.40417" lon="2.6382">
        <ele>136</ele>
        <time>2023-02-27T13:00:51Z</time>
      </trkpt>
      <trkpt lat="48.40576" lon="2.63895">
        <ele>134</ele>
        <time>2023-02-27T13:01:30Z</time>
      </trkpt>
      <trkpt lat="48.40727" lon="2.6382">
        <ele>135</ele>
        <time>2023-02-27T13:02:07Z</time>
      </trkpt>
      <trkpt lat="48.40793" lon="2.6383">
        <ele>137</ele>
        <time>2023-02-27T13:02:23Z</time>
      </trkpt>
      <trkpt lat="48.40858" lon="2.63883">
        <ele>139</ele>
        <time>2023-02-27T13:02:40Z</time>
      </trkpt>
      <trkpt lat="48.40938" lon="2.63399">
        <ele>139</ele>
        <time>2023-02-27T13:03:57Z</time>
      </trkpt>
      <trkpt lat="48.40971" lon="2.63233">
        <ele>138</ele>
        <time>2023-02-27T13:04:24Z</time>
      </trkpt>
      <trkpt lat="48.41017" lon="2.63082">
        <ele>138</ele>
        <time>2023-02-27T13:04:50Z</time>
      </trkpt>
      <trkpt lat="48.41017" lon="2.62972">
        <ele>135</ele>
        <time>2023-02-27T13:05:07Z</time>
      </trkpt>
      <trkpt lat="48.40994" lon="2.62919">
        <ele>133</ele>
        <time>2023-02-27T13:05:17Z</time>
      </trkpt>
      <trkpt lat="48.40956" lon="2.62685">
        <ele>131</ele>
        <time>2023-02-27T13:05:54Z</time>
      </trkpt>
      <trkpt lat="48.40971" lon="2.62548">
        <ele>128</ele>
        <time>2023-02-27T13:06:16Z</time>
      </trkpt>
      <trkpt lat="48.41049" lon="2.62385">
        <ele>129</ele>
        <time>2023-02-27T13:06:47Z</time>
      </trkpt>
      <trkpt lat="48.41068" lon="2.62067">
        <ele>115</ele>
        <time>2023-02-27T13:07:36Z</time>
      </trkpt>
      <trkpt lat="48.41105" lon="2.61793">
        <ele>104</ele>
        <time>2023-02-27T13:08:20Z</time>
      </trkpt>
      <trkpt lat="48.41272" lon="2.61681">
        <ele>103</ele>
        <time>2023-02-27T13:09:02Z</time>
      </trkpt>
      <trkpt lat="48.4149" lon="2.61045">
        <ele>104</ele>
        <time>2023-02-27T13:10:53Z</time>
      </trkpt>
      <trkpt lat="48.41612" lon="2.60763">
        <ele>88</ele>
        <time>2023-02-27T13:11:46Z</time>
      </trkpt>
    </trkseg>
  </trk>
</gpx>